createdAt,value
2022-09-28T00:00:10.075Z,98142.63
2022-09-28T00:02:15.954Z,98138.31
2022-09-28T00:04:18.435Z,98139.03
2022-09-28T00:06:25.494Z,98142.16
2022-09-28T00:08:30.689Z,98142.16
2022-09-28T00:10:32.789Z,98139.56
2022-09-28T00:12:35.450Z,98133.72
2022-09-28T00:14:37.309Z,98135.72
2022-09-28T00:16:43.789Z,98138.28
2022-09-28T00:18:46.688Z,98141.31
2022-09-28T00:20:50.855Z,98136.56
2022-09-28T00:22:53.086Z,98138.59
2022-09-28T00:24:55.407Z,98135.16
2022-09-28T00:27:00.891Z,98135.00
2022-09-28T00:29:03.345Z,98137.16
2022-09-28T00:31:06.103Z,98144.75
2022-09-28T00:33:08.215Z,98146.88
2022-09-28T00:35:10.187Z,98149.75
2022-09-28T00:37:13.992Z,98152.19
2022-09-28T00:39:17.356Z,98151.47
2022-09-28T00:41:19.463Z,98156.47
2022-09-28T00:43:23.841Z,98157.59
2022-09-28T00:45:27.069Z,98171.63
2022-09-28T00:47:38.450Z,98174.63
2022-09-28T00:49:45.749Z,98177.75
2022-09-28T00:51:48.893Z,98173.91
2022-09-28T00:53:51.793Z,98169.75
2022-09-28T00:55:57.699Z,98172.47
2022-09-28T00:58:02.043Z,98172.31
2022-09-28T01:00:05.636Z,98176.59
2022-09-28T01:02:10.499Z,98175.16
2022-09-28T01:04:12.924Z,98167.72
2022-09-28T01:06:23.610Z,98161.53
2022-09-28T01:08:28.670Z,98161.28
2022-09-28T01:10:31.752Z,98162.50
2022-09-28T01:12:33.807Z,98166.06
2022-09-28T01:14:36.331Z,98163.78
2022-09-28T01:17:02.643Z,98151.84
2022-09-28T01:19:35.871Z,98149.28
2022-09-28T01:21:52.256Z,98155.53
2022-09-28T01:24:42.210Z,98155.81
2022-09-28T01:26:56.513Z,98160.69
2022-09-28T01:29:12.565Z,98154.84
2022-09-28T01:31:19.875Z,98156.53
2022-09-28T01:33:31.737Z,98166.56
2022-09-28T01:35:37.055Z,98170.00
2022-09-28T01:37:44.692Z,98173.13
2022-09-28T01:39:51.047Z,98181.28
2022-09-28T01:41:57.741Z,98176.28
2022-09-28T01:44:03.131Z,98173.28
2022-09-28T01:46:20.478Z,98176.56
2022-09-28T01:48:32.116Z,98173.13
2022-09-28T01:50:39.922Z,98178.44
2022-09-28T01:52:49.656Z,98191.50
2022-09-28T01:55:10.114Z,98195.47
2022-09-28T01:57:18.836Z,98186.03
2022-09-28T01:59:28.171Z,98187.31
2022-09-28T02:01:39.511Z,98185.97
2022-09-28T02:03:51.236Z,98192.97
2022-09-28T02:06:11.506Z,98196.59
2022-09-28T02:08:18.155Z,98198.56
2022-09-28T02:10:24.957Z,98206.56
2022-09-28T02:12:39.473Z,98215.81
2022-09-28T02:14:45.802Z,98226.38
2022-09-28T02:16:51.158Z,98229.94
2022-09-28T02:18:59.913Z,98235.38
2022-09-28T02:21:22.099Z,98226.56
2022-09-28T02:23:26.845Z,98226.66
2022-09-28T02:25:40.295Z,98236.75
2022-09-28T02:27:43.074Z,98243.91
2022-09-28T02:29:45.341Z,98241.06
2022-09-28T02:31:47.686Z,98253.06
2022-09-28T02:33:51.822Z,98249.66
2022-09-28T02:35:53.931Z,98253.50
2022-09-28T02:37:57.987Z,98257.53
2022-09-28T02:39:59.932Z,98274.69
2022-09-28T02:42:26.019Z,98276.38
2022-09-28T02:44:39.932Z,98275.25
2022-09-28T02:46:45.260Z,98274.13
2022-09-28T02:49:21.478Z,98274.13
2022-09-28T02:52:22.057Z,98277.56
2022-09-28T02:55:07.702Z,98284.38
2022-09-28T02:57:39.645Z,98298.47
2022-09-28T02:59:53.243Z,98293.38
2022-09-28T03:02:10.017Z,98292.63
2022-09-28T03:04:36.756Z,98294.03
2022-09-28T03:06:55.014Z,98294.16
2022-09-28T03:09:08.025Z,98296.16
2022-09-28T03:11:22.585Z,98297.47
2022-09-28T03:13:28.914Z,98300.94
2022-09-28T03:15:33.185Z,98298.06
2022-09-28T03:17:35.903Z,98296.47
2022-09-28T03:19:38.122Z,98289.72
2022-09-28T03:21:40.471Z,98283.19
2022-09-28T03:23:42.978Z,98289.34
2022-09-28T03:25:45.524Z,98283.78
2022-09-28T03:27:47.911Z,98281.31
2022-09-28T03:29:50.996Z,98281.59
2022-09-28T03:31:53.692Z,98280.59
2022-09-28T03:33:56.502Z,98287.75
2022-09-28T03:35:59.074Z,98293.22
2022-09-28T03:38:01.731Z,98296.38
2022-09-28T03:40:06.908Z,98299.84
2022-09-28T03:42:09.035Z,98311.81
2022-09-28T03:44:14.650Z,98311.81
2022-09-28T03:46:17.237Z,98317.97
2022-09-28T03:48:29.867Z,98320.94
2022-09-28T03:50:34.174Z,98333.38
2022-09-28T03:52:36.283Z,98323.66
2022-09-28T03:54:38.555Z,98335.63
2022-09-28T03:56:41.476Z,98332.75
2022-09-28T03:58:43.911Z,98334.72
2022-09-28T04:00:48.484Z,98341.25
2022-09-28T04:02:50.491Z,98339.56
2022-09-28T04:04:52.586Z,98333.16
2022-09-28T04:06:55.235Z,98343.78
2022-09-28T04:08:57.661Z,98339.56
2022-09-28T04:11:01.717Z,98344.88
2022-09-28T04:13:04.936Z,98338.13
2022-09-28T04:15:07.920Z,98354.25
2022-09-28T04:17:10.031Z,98346.84
2022-09-28T04:19:12.213Z,98341.81
2022-09-28T04:21:32.879Z,98346.47
2022-09-28T04:23:43.001Z,98344.13
2022-09-28T04:25:52.328Z,98341.78
2022-09-28T04:28:13.266Z,98346.25
2022-09-28T04:30:15.755Z,98361.75
2022-09-28T04:32:20.222Z,98365.22
2022-09-28T04:34:23.266Z,98372.34
2022-09-28T04:36:25.446Z,98368.66
2022-09-28T04:38:51.319Z,98364.09
2022-09-28T04:40:50.000Z,98364.22
2022-09-28T04:42:56.163Z,98363.84
2022-09-28T04:45:01.045Z,98367.41
2022-09-28T04:47:05.322Z,98364.84
2022-09-28T04:49:09.855Z,98358.06
2022-09-28T04:51:25.481Z,98362.25
2022-09-28T04:53:28.189Z,98361.91
2022-09-28T04:55:32.591Z,98367.16
2022-09-28T04:57:35.688Z,98369.53
2022-09-28T04:59:37.895Z,98356.19
2022-09-28T05:01:40.152Z,98359.81
2022-09-28T05:04:00.476Z,98355.34
2022-09-28T05:06:18.646Z,98364.59
2022-09-28T05:08:22.943Z,98371.88
2022-09-28T05:10:25.346Z,98377.78
2022-09-28T05:12:30.887Z,98370.63
2022-09-28T05:14:34.327Z,98374.78
2022-09-28T05:16:36.132Z,98376.66
2022-09-28T05:18:57.918Z,98378.25
2022-09-28T05:21:02.349Z,98386.53
2022-09-28T05:23:04.367Z,98378.25
2022-09-28T05:25:07.462Z,98382.72
2022-09-28T05:27:21.771Z,98386.03
2022-09-28T05:29:33.676Z,98381.34
2022-09-28T05:31:54.204Z,98393.91
2022-09-28T05:34:22.133Z,98405.97
2022-09-28T05:36:26.835Z,98397.00
2022-09-28T05:38:30.451Z,98401.31
2022-09-28T05:40:32.740Z,98404.88
2022-09-28T05:42:34.693Z,98406.38
2022-09-28T05:44:38.550Z,98403.41
2022-09-28T05:46:40.902Z,98405.13
2022-09-28T05:48:44.620Z,98407.47
2022-09-28T05:50:53.992Z,98402.56
2022-09-28T05:53:06.869Z,98401.16
2022-09-28T05:55:09.762Z,98402.56
2022-09-28T05:57:12.495Z,98404.16
2022-09-28T05:59:14.916Z,98410.19
2022-09-28T06:01:19.388Z,98403.66
2022-09-28T06:03:22.432Z,98411.03
2022-09-28T06:05:25.049Z,98395.50
2022-09-28T06:07:27.117Z,98413.50
2022-09-28T06:09:30.547Z,98408.69
2022-09-28T06:11:58.276Z,98409.19
2022-09-28T06:14:08.355Z,98406.22
2022-09-28T06:16:15.325Z,98407.19
2022-09-28T06:18:17.969Z,98404.41
2022-09-28T06:20:42.936Z,98406.34
2022-09-28T06:23:04.313Z,98408.69
2022-09-28T06:25:07.221Z,98417.94
2022-09-28T06:27:09.465Z,98419.81
2022-09-28T06:29:19.233Z,98417.81
2022-09-28T06:31:24.051Z,98425.56
2022-09-28T06:33:26.887Z,98435.06
2022-09-28T06:35:30.823Z,98438.91
2022-09-28T06:37:33.508Z,98441.59
2022-09-28T06:39:37.213Z,98435.19
2022-09-28T06:41:41.810Z,98433.97
2022-09-28T06:43:49.494Z,98435.31
2022-09-28T06:46:00.403Z,98435.69
2022-09-28T06:48:20.759Z,98437.03
2022-09-28T06:50:24.419Z,98441.34
2022-09-28T06:52:44.290Z,98439.88
2022-09-28T06:54:59.296Z,98422.38
2022-09-28T06:57:12.207Z,98433.84
2022-09-28T06:59:14.047Z,98431.72
2022-09-28T07:01:16.253Z,98433.13
2022-09-28T07:03:30.962Z,98439.16
2022-09-28T07:05:54.318Z,98439.03
2022-09-28T07:08:19.837Z,98434.34
2022-09-28T07:10:42.906Z,98447.56
2022-09-28T07:13:01.556Z,98443.56
2022-09-28T07:15:09.416Z,98451.88
2022-09-28T07:17:13.997Z,98461.72
2022-09-28T07:19:17.805Z,98461.47
2022-09-28T07:21:28.991Z,98455.03
2022-09-28T07:23:47.622Z,98460.09
2022-09-28T07:26:07.797Z,98463.44
2022-09-28T07:28:30.727Z,98466.38
2022-09-28T07:30:52.951Z,98457.22
2022-09-28T07:33:15.981Z,98469.25
2022-09-28T07:35:27.590Z,98470.94
2022-09-28T07:37:31.725Z,98474.66
2022-09-28T07:39:54.205Z,98469.94
2022-09-28T07:42:02.434Z,98464.66
2022-09-28T07:44:07.557Z,98477.81
2022-09-28T07:46:12.586Z,98473.88
2022-09-28T07:48:20.477Z,98472.53
2022-09-28T07:50:36.356Z,98482.41
2022-09-28T07:52:49.377Z,98485.59
2022-09-28T07:55:03.336Z,98489.31
2022-09-28T07:57:31.224Z,98491.41
2022-09-28T07:59:56.532Z,98489.69
2022-09-28T08:02:20.280Z,98482.13
2022-09-28T08:04:23.915Z,98485.00
2022-09-28T08:06:26.437Z,98486.84
2022-09-28T08:08:30.517Z,98486.44
2022-09-28T08:10:33.774Z,98492.25
2022-09-28T08:13:03.043Z,98496.47
2022-09-28T08:15:23.796Z,98504.19
2022-09-28T08:17:52.681Z,98501.84
2022-09-28T08:20:16.470Z,98517.50
2022-09-28T08:22:29.556Z,98505.66
2022-09-28T08:24:32.471Z,98504.03
2022-09-28T08:26:35.301Z,98503.88
2022-09-28T08:28:39.264Z,98509.09
2022-09-28T08:31:04.873Z,98505.13
2022-09-28T08:33:07.923Z,98505.00
2022-09-28T08:35:19.206Z,98507.94
2022-09-28T08:37:39.757Z,98498.53
2022-09-28T08:40:28.425Z,98501.38
2022-09-28T08:42:45.803Z,98507.03
2022-09-28T08:45:05.733Z,98503.22
2022-09-28T08:47:54.027Z,98500.47
2022-09-28T08:50:05.454Z,98486.47
2022-09-28T08:52:26.676Z,98475.75
2022-09-28T08:55:00.460Z,98476.06
2022-09-28T08:57:24.083Z,98473.16
2022-09-28T08:59:35.375Z,98461.81
2022-09-28T09:01:49.511Z,98471.16
2022-09-28T09:03:55.982Z,98471.09
2022-09-28T09:06:58.071Z,98470.34
2022-09-28T09:09:43.226Z,98470.13
2022-09-28T09:12:21.452Z,98472.00
2022-09-28T09:14:34.695Z,98468.94
2022-09-28T09:16:45.870Z,98471.69
2022-09-28T09:19:34.485Z,98470.72
2022-09-28T09:21:50.943Z,98472.34
2022-09-28T09:24:01.671Z,98472.94
2022-09-28T09:26:40.549Z,98465.66
2022-09-28T09:29:48.764Z,98464.50
2022-09-28T09:32:16.361Z,98474.41
2022-09-28T09:34:27.369Z,98465.41
2022-09-28T09:37:29.422Z,98468.56
2022-09-28T09:40:31.463Z,98465.28
2022-09-28T09:43:11.334Z,98464.59
2022-09-28T09:45:31.469Z,98464.34
2022-09-28T09:48:21.308Z,98445.09
2022-09-28T09:50:39.782Z,98457.03
2022-09-28T09:52:55.890Z,98455.16
2022-09-28T09:54:58.095Z,98461.47
2022-09-28T09:57:32.943Z,98462.16
2022-09-28T09:59:42.023Z,98470.19
2022-09-28T10:02:26.451Z,98461.44
2022-09-28T10:04:43.375Z,98455.28
2022-09-28T10:06:59.911Z,98448.81
2022-09-28T10:09:06.231Z,98455.72
2022-09-28T10:11:42.195Z,98458.44
2022-09-28T10:13:49.762Z,98454.81
2022-09-28T10:16:16.292Z,98441.31
2022-09-28T10:18:30.384Z,98450.94
2022-09-28T10:20:53.199Z,98452.06
2022-09-28T10:23:30.328Z,98451.16
2022-09-28T10:25:36.672Z,98449.59
2022-09-28T10:27:45.672Z,98444.72
2022-09-28T10:30:13.147Z,98441.41
2022-09-28T10:32:26.945Z,98450.88
2022-09-28T10:34:35.800Z,98439.81
2022-09-28T10:37:01.689Z,98446.41
2022-09-28T10:39:33.093Z,98440.19
2022-09-28T10:41:50.215Z,98441.59
2022-09-28T10:44:06.975Z,98442.19
2022-09-28T10:46:24.137Z,98435.72
2022-09-28T10:48:36.319Z,98435.16
2022-09-28T10:50:40.858Z,98440.72
2022-09-28T10:52:47.505Z,98439.09
2022-09-28T10:55:32.231Z,98438.06
2022-09-28T10:57:37.441Z,98429.56
2022-09-28T10:59:42.662Z,98432.72
2022-09-28T11:02:22.349Z,98430.59
2022-09-28T11:04:38.780Z,98430.91
2022-09-28T11:06:42.016Z,98435.13
2022-09-28T11:08:50.634Z,98434.69
2022-09-28T11:11:12.705Z,98438.13
2022-09-28T11:13:14.923Z,98434.75
2022-09-28T11:15:30.802Z,98441.13
2022-09-28T11:17:40.767Z,98435.34
2022-09-28T11:19:46.111Z,98436.28
2022-09-28T11:21:51.238Z,98425.41
2022-09-28T11:23:58.885Z,98425.81
2022-09-28T11:26:07.314Z,98419.66
2022-09-28T11:28:25.861Z,98424.81
2022-09-28T11:30:29.534Z,98427.34
2022-09-28T11:33:04.061Z,98427.41
2022-09-28T11:35:36.570Z,98429.88
2022-09-28T11:37:51.348Z,98426.50
2022-09-28T11:40:42.544Z,98437.03
2022-09-28T11:43:16.763Z,98422.22
2022-09-28T11:45:52.659Z,98421.19
2022-09-28T11:48:04.869Z,98433.53
2022-09-28T11:50:23.865Z,98431.81
2022-09-28T11:52:35.403Z,98423.44
2022-09-28T11:54:51.949Z,98420.50
2022-09-28T11:56:55.602Z,98413.38
2022-09-28T11:59:12.785Z,98425.00
2022-09-28T12:01:25.612Z,98424.94
2022-09-28T12:03:52.963Z,98425.00
2022-09-28T12:06:05.518Z,98425.56
2022-09-28T12:08:22.780Z,98416.56
2022-09-28T12:11:05.619Z,98420.59
2022-09-28T12:13:34.481Z,98417.63
2022-09-28T12:16:27.639Z,98413.34
2022-09-28T12:18:28.767Z,98406.47
2022-09-28T12:20:39.390Z,98406.88
2022-09-28T12:22:48.446Z,98411.38
2022-09-28T12:24:55.690Z,98409.19
2022-09-28T12:27:16.762Z,98407.69
2022-09-28T12:29:24.434Z,98409.06
2022-09-28T12:31:49.577Z,98404.97
2022-09-28T12:33:52.662Z,98399.84
2022-09-28T12:36:18.997Z,98397.88
2022-09-28T12:38:43.323Z,98395.81
2022-09-28T12:40:55.941Z,98396.88
2022-09-28T12:43:41.099Z,98393.56
2022-09-28T12:46:18.472Z,98394.19
2022-09-28T12:48:27.109Z,98397.34
2022-09-28T12:50:54.708Z,98392.25
2022-09-28T12:53:33.541Z,98390.72
2022-09-28T12:55:56.791Z,98397.22
2022-09-28T12:58:16.876Z,98402.16
2022-09-28T13:00:24.796Z,98393.63
2022-09-28T13:03:07.300Z,98392.53
2022-09-28T13:05:29.622Z,98391.47
2022-09-28T13:07:59.819Z,98390.50
2022-09-28T13:10:14.173Z,98387.59
2022-09-28T13:12:42.789Z,98390.50
2022-09-28T13:15:10.048Z,98385.22
2022-09-28T13:17:21.489Z,98388.19
2022-09-28T13:19:59.529Z,98389.59
2022-09-28T13:22:17.109Z,98394.00
2022-09-28T13:24:34.089Z,98398.63
2022-09-28T13:26:47.218Z,98388.81
2022-09-28T13:28:54.889Z,98392.78
2022-09-28T13:31:00.619Z,98379.25
2022-09-28T13:33:06.201Z,98387.31
2022-09-28T13:35:15.185Z,98377.72
2022-09-28T13:37:17.279Z,98379.75
2022-09-28T13:39:53.076Z,98370.31
2022-09-28T13:41:56.262Z,98374.78
2022-09-28T13:44:24.712Z,98373.00
2022-09-28T13:46:26.897Z,98372.03
2022-09-28T13:49:03.621Z,98374.97
2022-09-28T13:51:22.395Z,98369.56
2022-09-28T13:53:36.594Z,98362.53
2022-09-28T13:56:04.670Z,98369.34
2022-09-28T13:58:27.098Z,98360.50
2022-09-28T14:00:53.983Z,98366.56
2022-09-28T14:03:06.842Z,98365.25
2022-09-28T14:05:23.805Z,98367.63
2022-09-28T14:07:47.282Z,98365.59
2022-09-28T14:10:08.241Z,98361.84
2022-09-28T14:12:28.883Z,98363.41
2022-09-28T14:14:50.029Z,98357.06
2022-09-28T14:17:21.177Z,98352.16
2022-09-28T14:19:27.955Z,98358.72
2022-09-28T14:22:03.310Z,98361.59
2022-09-28T14:24:20.852Z,98366.22
2022-09-28T14:26:42.080Z,98363.41
2022-09-28T14:28:57.028Z,98364.47
2022-09-28T14:31:12.012Z,98375.28
2022-09-28T14:33:30.849Z,98369.44
2022-09-28T14:35:43.478Z,98358.50
2022-09-28T14:38:08.140Z,98359.78
2022-09-28T14:40:40.504Z,98359.59
2022-09-28T14:43:25.646Z,98358.41
2022-09-28T14:45:36.601Z,98346.91
2022-09-28T14:47:43.666Z,98340.41
2022-09-28T14:49:51.651Z,98338.50
2022-09-28T14:52:20.742Z,98337.75
2022-09-28T14:54:54.033Z,98333.94
2022-09-28T14:57:08.310Z,98332.75
2022-09-28T14:59:19.535Z,98324.19
2022-09-28T15:01:24.871Z,98327.06
2022-09-28T15:03:30.548Z,98329.13
2022-09-28T15:05:44.335Z,98331.28
2022-09-28T15:07:52.468Z,98331.28
2022-09-28T15:09:57.645Z,98329.59
2022-09-28T15:12:22.451Z,98336.69
2022-09-28T15:14:25.086Z,98327.19
2022-09-28T15:16:31.205Z,98325.78
2022-09-28T15:18:48.218Z,98333.72
2022-09-28T15:20:50.759Z,98332.16
2022-09-28T15:22:58.682Z,98335.22
2022-09-28T15:25:03.150Z,98335.22
2022-09-28T15:27:15.921Z,98335.03
2022-09-28T15:29:19.688Z,98339.97
2022-09-28T15:31:26.439Z,98343.88
2022-09-28T15:33:49.634Z,98333.53
2022-09-28T15:36:08.263Z,98334.06
2022-09-28T15:38:18.398Z,98333.75
2022-09-28T15:40:37.527Z,98338.25
2022-09-28T15:42:39.723Z,98324.28
2022-09-28T15:44:45.982Z,98319.66
2022-09-28T15:46:50.783Z,98327.19
2022-09-28T15:48:56.457Z,98311.97
2022-09-28T15:51:05.229Z,98319.97
2022-09-28T15:53:07.340Z,98317.97
2022-09-28T15:55:18.798Z,98316.41
2022-09-28T15:57:38.351Z,98317.44
2022-09-28T15:59:41.475Z,98316.25
2022-09-28T16:01:45.369Z,98312.09
2022-09-28T16:03:47.544Z,98331.22
2022-09-28T16:06:05.415Z,98317.97
2022-09-28T16:08:21.466Z,98316.47
2022-09-28T16:10:36.074Z,98314.75
2022-09-28T16:12:38.072Z,98321.47
2022-09-28T16:14:40.173Z,98320.63
2022-09-28T16:16:50.482Z,98318.47
2022-09-28T16:18:55.477Z,98315.75
2022-09-28T16:21:20.568Z,98311.47
2022-09-28T16:23:27.138Z,98316.38
2022-09-28T16:25:29.194Z,98321.13
2022-09-28T16:27:41.496Z,98323.06
2022-09-28T16:29:45.316Z,98323.94
2022-09-28T16:31:52.938Z,98326.13
2022-09-28T16:33:56.156Z,98324.00
2022-09-28T16:36:03.321Z,98325.63
2022-09-28T16:38:16.609Z,98333.53
2022-09-28T16:40:18.807Z,98333.00
2022-09-28T16:42:20.800Z,98338.75
2022-09-28T16:44:31.231Z,98341.50
2022-09-28T16:46:37.737Z,98330.19
2022-09-28T16:48:51.166Z,98338.41
2022-09-28T16:50:53.855Z,98343.13
2022-09-28T16:53:30.883Z,98358.66
2022-09-28T16:55:40.646Z,98352.66
2022-09-28T16:57:45.793Z,98357.69
2022-09-28T16:59:48.100Z,98354.69
2022-09-28T17:01:50.448Z,98360.63
2022-09-28T17:03:52.915Z,98363.78
2022-09-28T17:05:55.901Z,98363.06
2022-09-28T17:08:02.115Z,98366.38
2022-09-28T17:10:15.625Z,98366.38
2022-09-28T17:12:24.666Z,98360.34
2022-09-28T17:14:26.786Z,98376.13
2022-09-28T17:16:59.893Z,98380.28
2022-09-28T17:18:55.753Z,98382.56
2022-09-28T17:21:03.555Z,98374.97
2022-09-28T17:23:05.981Z,98378.97
2022-09-28T17:25:12.725Z,98383.16
2022-09-28T17:27:19.826Z,98375.53
2022-09-28T17:29:22.471Z,98379.56
2022-09-28T17:31:24.801Z,98374.41
2022-09-28T17:33:26.921Z,98381.97
2022-09-28T17:35:29.489Z,98380.56
2022-09-28T17:37:34.628Z,98382.69
2022-09-28T17:39:39.036Z,98387.41
2022-09-28T17:41:41.385Z,98387.69
2022-09-28T17:43:44.015Z,98386.97
2022-09-28T17:45:47.777Z,98384.69
2022-09-28T17:47:49.991Z,98386.69
2022-09-28T17:49:53.958Z,98391.53
2022-09-28T17:51:56.110Z,98391.81
2022-09-28T17:54:01.256Z,98403.09
2022-09-28T17:56:03.690Z,98401.53
2022-09-28T17:58:22.729Z,98401.53
2022-09-28T18:00:27.563Z,98398.63
2022-09-28T18:02:29.641Z,98402.38
2022-09-28T18:04:51.282Z,98401.94
2022-09-28T18:06:54.116Z,98402.19
2022-09-28T18:08:56.156Z,98395.00
2022-09-28T18:10:58.386Z,98405.88
2022-09-28T18:13:00.263Z,98393.28
2022-09-28T18:15:02.163Z,98397.13
2022-09-28T18:17:04.506Z,98396.81
2022-09-28T18:19:06.404Z,98397.22
2022-09-28T18:21:38.968Z,98398.06
2022-09-28T18:23:41.512Z,98392.22
2022-09-28T18:25:44.949Z,98392.78
2022-09-28T18:27:46.966Z,98395.50
2022-09-28T18:30:14.540Z,98395.19
2022-09-28T18:32:16.548Z,98397.66
2022-09-28T18:34:18.488Z,98403.09
2022-09-28T18:36:20.461Z,98405.53
2022-09-28T18:38:22.540Z,98401.34
2022-09-28T18:40:24.735Z,98393.34
2022-09-28T18:42:26.635Z,98396.06
2022-09-28T18:44:31.338Z,98388.75
2022-09-28T18:46:36.752Z,98391.50
2022-09-28T18:48:40.634Z,98397.78
2022-09-28T18:50:43.097Z,98405.94
2022-09-28T18:52:47.282Z,98400.91
2022-09-28T18:54:50.814Z,98400.16
2022-09-28T18:56:57.308Z,98403.91
2022-09-28T18:59:00.133Z,98405.47
2022-09-28T19:01:28.939Z,98397.00
2022-09-28T19:03:32.138Z,98399.88
2022-09-28T19:05:35.184Z,98395.66
2022-09-28T19:07:37.181Z,98392.88
2022-09-28T19:09:44.071Z,98390.69
2022-09-28T19:11:46.553Z,98392.25
2022-09-28T19:13:48.524Z,98390.97
2022-09-28T19:15:50.455Z,98392.03
2022-09-28T19:17:52.599Z,98385.19
2022-09-28T19:19:54.708Z,98387.63
2022-09-28T19:21:56.556Z,98387.28
2022-09-28T19:24:02.630Z,98387.94
2022-09-28T19:26:13.748Z,98391.81
2022-09-28T19:28:15.502Z,98385.00
2022-09-28T19:30:17.406Z,98395.53
2022-09-28T19:32:19.490Z,98395.41
2022-09-28T19:34:24.415Z,98384.41
2022-09-28T19:36:28.618Z,98388.31
2022-09-28T19:38:32.635Z,98387.94
2022-09-28T19:40:37.183Z,98388.50
2022-09-28T19:42:40.130Z,98386.53
2022-09-28T19:44:42.522Z,98392.69
2022-09-28T19:46:45.264Z,98396.13
2022-09-28T19:48:48.664Z,98390.69
2022-09-28T19:51:03.626Z,98389.25
2022-09-28T19:53:07.353Z,98398.84
2022-09-28T19:55:10.161Z,98391.13
2022-09-28T19:57:14.680Z,98389.72
2022-09-28T19:59:16.887Z,98389.25
2022-09-28T20:01:19.121Z,98384.47
2022-09-28T20:03:21.240Z,98382.06
2022-09-28T20:05:23.337Z,98388.59
2022-09-28T20:07:25.426Z,98387.00
2022-09-28T20:09:27.667Z,98393.34
2022-09-28T20:11:31.695Z,98394.13
2022-09-28T20:13:39.194Z,98382.88
2022-09-28T20:15:41.838Z,98394.34
2022-09-28T20:17:44.285Z,98394.97
2022-09-28T20:19:47.288Z,98386.19
2022-09-28T20:21:50.546Z,98389.38
2022-09-28T20:23:57.676Z,98391.22
2022-09-28T20:25:59.771Z,98385.88
2022-09-28T20:28:02.335Z,98380.69
2022-09-28T20:30:05.317Z,98384.91
2022-09-28T20:32:07.499Z,98395.78
2022-09-28T20:34:09.850Z,98400.09
2022-09-28T20:36:17.699Z,98397.53
2022-09-28T20:38:19.629Z,98388.88
2022-09-28T20:40:23.121Z,98391.00
2022-09-28T20:42:27.657Z,98386.06
2022-09-28T20:44:29.748Z,98392.47
2022-09-28T20:46:31.956Z,98384.72
2022-09-28T20:48:35.106Z,98381.94
2022-09-28T20:50:37.130Z,98388.59
2022-09-28T20:52:39.141Z,98387.69
2022-09-28T20:54:41.419Z,98389.28
2022-09-28T20:56:43.571Z,98389.03
2022-09-28T20:58:46.381Z,98391.00
2022-09-28T21:00:48.538Z,98389.56
2022-09-28T21:02:53.887Z,98390.94
2022-09-28T21:04:56.191Z,98388.81
2022-09-28T21:06:58.432Z,98392.25
2022-09-28T21:09:01.311Z,98393.16
2022-09-28T21:11:03.312Z,98392.69
2022-09-28T21:13:05.753Z,98395.75
2022-09-28T21:15:08.216Z,98397.25
2022-09-28T21:17:11.841Z,98404.97
2022-09-28T21:19:13.847Z,98400.56
2022-09-28T21:21:18.294Z,98396.75
2022-09-28T21:23:25.041Z,98403.41
2022-09-28T21:25:27.390Z,98379.84
2022-09-28T21:27:29.219Z,98387.63
2022-09-28T21:29:31.195Z,98382.69
2022-09-28T21:31:47.271Z,98386.28
2022-09-28T21:33:49.851Z,98386.50
2022-09-28T21:35:51.966Z,98388.13
2022-09-28T21:37:56.491Z,98389.06
2022-09-28T21:39:59.648Z,98397.72
2022-09-28T21:42:01.870Z,98391.44
2022-09-28T21:44:03.913Z,98386.50
2022-09-28T21:46:06.213Z,98394.75
2022-09-28T21:48:08.265Z,98395.28
2022-09-28T21:50:10.250Z,98394.50
2022-09-28T21:52:12.374Z,98383.56
2022-09-28T21:54:15.367Z,98389.75
2022-09-28T21:56:17.696Z,98387.63
2022-09-28T21:58:25.516Z,98380.59
2022-09-28T22:00:27.901Z,98387.28
2022-09-28T22:02:30.902Z,98393.03
2022-09-28T22:04:32.968Z,98388.63
2022-09-28T22:06:35.668Z,98387.38
2022-09-28T22:08:38.079Z,98384.19
2022-09-28T22:10:40.099Z,98391.09
2022-09-28T22:12:42.241Z,98392.91
2022-09-28T22:14:44.186Z,98392.19
2022-09-28T22:16:46.392Z,98395.38
2022-09-28T22:18:49.129Z,98395.13
2022-09-28T22:21:01.798Z,98391.56
2022-09-28T22:23:03.747Z,98391.47
2022-09-28T22:25:06.386Z,98388.59
2022-09-28T22:27:08.445Z,98399.94
2022-09-28T22:29:11.039Z,98394.16
2022-09-28T22:31:14.753Z,98399.34
2022-09-28T22:33:17.027Z,98399.34
2022-09-28T22:35:19.117Z,98391.81
2022-09-28T22:37:21.637Z,98398.13
2022-09-28T22:39:23.825Z,98398.97
2022-09-28T22:41:26.761Z,98400.94
2022-09-28T22:43:28.925Z,98393.66
2022-09-28T22:45:31.086Z,98407.81
2022-09-28T22:47:33.162Z,98395.63
2022-09-28T22:49:35.333Z,98400.56
2022-09-28T22:51:37.600Z,98393.41
2022-09-28T22:53:39.697Z,98398.22
2022-09-28T22:55:42.372Z,98386.75
2022-09-28T22:57:44.547Z,98387.75
2022-09-28T22:59:46.918Z,98376.91
2022-09-28T23:01:49.210Z,98372.59
2022-09-28T23:03:52.968Z,98378.00
2022-09-28T23:05:57.107Z,98380.13
2022-09-28T23:07:59.351Z,98375.31
2022-09-28T23:10:01.834Z,98373.19
2022-09-28T23:12:04.211Z,98383.53
2022-09-28T23:14:06.717Z,98376.03
2022-09-28T23:16:12.050Z,98379.00
2022-09-28T23:18:14.531Z,98370.63
2022-09-28T23:20:17.124Z,98371.88
2022-09-28T23:22:22.047Z,98377.00
2022-09-28T23:24:24.207Z,98384.78
2022-09-28T23:26:29.724Z,98384.53
2022-09-28T23:28:31.829Z,98377.41
2022-09-28T23:30:34.276Z,98376.19
2022-09-28T23:32:37.294Z,98367.16
2022-09-28T23:34:40.694Z,98363.50
2022-09-28T23:36:42.949Z,98368.91
2022-09-28T23:38:45.224Z,98356.31
2022-09-28T23:40:47.717Z,98365.56
2022-09-28T23:42:49.819Z,98352.91
2022-09-28T23:44:51.989Z,98356.72
2022-09-28T23:46:54.705Z,98355.72
2022-09-28T23:48:57.116Z,98355.72
2022-09-28T23:50:59.334Z,98352.53
2022-09-28T23:53:01.308Z,98358.53
2022-09-28T23:55:03.798Z,98363.75
2022-09-28T23:57:06.401Z,98357.31
2022-09-28T23:59:08.535Z,98349.31
